createdAt,value
2023-03-10T00:00:12.888Z,93.58
2023-03-10T00:02:49.464Z,94.24
2023-03-10T00:05:22.102Z,93.78
2023-03-10T00:07:54.052Z,94.60
2023-03-10T00:10:27.431Z,94.46
2023-03-10T00:12:59.283Z,94.83
2023-03-10T00:15:31.652Z,94.78
2023-03-10T00:18:03.326Z,94.82
2023-03-10T00:20:35.126Z,95.06
2023-03-10T00:23:06.983Z,94.88
2023-03-10T00:25:40.444Z,94.96
2023-03-10T00:28:12.356Z,94.97
2023-03-10T00:30:44.296Z,94.90
2023-03-10T00:33:16.104Z,95.05
2023-03-10T00:35:48.144Z,94.85
2023-03-10T00:38:19.914Z,94.33
2023-03-10T00:40:58.881Z,94.15
2023-03-10T00:43:31.550Z,94.89
2023-03-10T00:46:04.321Z,94.41
2023-03-10T00:48:36.506Z,94.61
2023-03-10T00:51:09.414Z,94.33
2023-03-10T00:53:43.270Z,94.88
2023-03-10T00:56:19.753Z,94.40
2023-03-10T00:58:55.370Z,95.15
2023-03-10T01:01:30.852Z,94.53
2023-03-10T01:04:06.408Z,95.48
2023-03-10T01:06:38.498Z,95.42
2023-03-10T01:09:10.825Z,95.27
2023-03-10T01:11:43.986Z,95.37
2023-03-10T01:14:19.037Z,94.97
2023-03-10T01:16:50.840Z,95.26
2023-03-10T01:19:22.652Z,94.77
2023-03-10T01:21:54.540Z,94.72
2023-03-10T01:24:26.329Z,94.99
2023-03-10T01:26:59.475Z,94.88
2023-03-10T01:29:31.290Z,95.03
2023-03-10T01:32:04.329Z,94.82
2023-03-10T01:34:36.156Z,94.81
2023-03-10T01:37:07.980Z,94.06
2023-03-10T01:39:39.771Z,94.58
2023-03-10T01:42:12.880Z,94.67
2023-03-10T01:44:44.653Z,94.82
2023-03-10T01:47:16.487Z,94.19
2023-03-10T01:49:49.813Z,94.19
2023-03-10T01:52:27.922Z,94.26
2023-03-10T01:55:07.789Z,94.71
2023-03-10T01:57:46.934Z,94.28
2023-03-10T02:00:21.039Z,95.01
2023-03-10T02:03:03.109Z,94.85
2023-03-10T02:05:37.481Z,95.11
2023-03-10T02:08:10.445Z,95.08
2023-03-10T02:10:42.452Z,95.37
2023-03-10T02:13:16.488Z,94.92
2023-03-10T02:15:50.423Z,94.97
2023-03-10T02:18:24.638Z,94.44
2023-03-10T02:21:10.795Z,95.38
2023-03-10T02:24:00.460Z,95.29
2023-03-10T02:26:48.633Z,94.71
2023-03-10T02:29:28.103Z,94.51
2023-03-10T02:32:02.799Z,94.58
2023-03-10T02:34:34.633Z,95.05
2023-03-10T02:37:06.437Z,95.05
2023-03-10T02:39:38.228Z,94.92
2023-03-10T02:42:10.880Z,95.18
2023-03-10T02:44:45.375Z,94.69
2023-03-10T02:47:17.901Z,94.63
2023-03-10T02:49:49.771Z,94.79
2023-03-10T02:52:33.035Z,95.48
2023-03-10T02:55:04.988Z,94.98
2023-03-10T02:57:36.578Z,94.99
2023-03-10T03:00:12.880Z,94.96
2023-03-10T03:02:44.470Z,95.47
2023-03-10T03:05:16.427Z,95.39
2023-03-10T03:07:48.239Z,95.27
2023-03-10T03:10:20.438Z,95.25
2023-03-10T03:12:52.011Z,96.14
2023-03-10T03:15:26.910Z,95.73
2023-03-10T03:17:59.521Z,96.32
2023-03-10T03:20:34.066Z,95.80
2023-03-10T03:23:05.848Z,95.53
2023-03-10T03:25:43.140Z,95.91
2023-03-10T03:28:15.784Z,96.41
2023-03-10T03:30:49.637Z,95.81
2023-03-10T03:33:21.499Z,96.39
2023-03-10T03:35:53.379Z,96.54
2023-03-10T03:38:25.671Z,95.63
2023-03-10T03:40:57.324Z,96.18
2023-03-10T03:43:29.582Z,95.57
2023-03-10T03:46:04.342Z,95.92
2023-03-10T03:48:36.256Z,96.42
2023-03-10T03:51:08.101Z,96.52
2023-03-10T03:53:39.942Z,95.59
2023-03-10T03:56:12.536Z,95.73
2023-03-10T03:58:44.384Z,95.44
2023-03-10T04:01:17.883Z,95.41
2023-03-10T04:03:50.376Z,95.54
2023-03-10T04:06:22.220Z,95.63
2023-03-10T04:08:54.438Z,96.61
2023-03-10T04:11:26.318Z,96.04
2023-03-10T04:13:57.995Z,96.28
2023-03-10T04:16:30.907Z,95.89
2023-03-10T04:19:02.742Z,95.84
2023-03-10T04:21:34.705Z,96.06
2023-03-10T04:24:06.605Z,96.52
2023-03-10T04:26:38.876Z,96.15
2023-03-10T04:29:10.741Z,95.96
2023-03-10T04:31:50.487Z,96.57
2023-03-10T04:34:30.930Z,96.32
2023-03-10T04:37:02.725Z,96.32
2023-03-10T04:39:34.571Z,95.75
2023-03-10T04:42:06.555Z,96.51
2023-03-10T04:44:38.342Z,96.58
2023-03-10T04:47:11.753Z,96.96
2023-03-10T04:49:43.740Z,97.21
2023-03-10T04:52:15.777Z,96.56
2023-03-10T04:54:47.460Z,96.65
2023-03-10T04:57:19.284Z,97.10
2023-03-10T04:59:51.271Z,96.29
2023-03-10T05:02:24.202Z,96.62
2023-03-10T05:04:56.773Z,97.08
2023-03-10T05:07:28.558Z,96.48
2023-03-10T05:10:01.519Z,96.95
2023-03-10T05:12:33.684Z,96.73
2023-03-10T05:15:06.013Z,96.58
2023-03-10T05:17:38.965Z,96.62
2023-03-10T05:20:14.437Z,96.42
2023-03-10T05:22:50.698Z,96.41
2023-03-10T05:25:22.501Z,96.52
2023-03-10T05:27:54.322Z,96.28
2023-03-10T05:30:26.152Z,96.42
2023-03-10T05:32:59.394Z,96.26
2023-03-10T05:35:33.088Z,96.45
2023-03-10T05:38:05.015Z,97.00
2023-03-10T05:40:36.969Z,96.90
2023-03-10T05:43:08.793Z,96.56
2023-03-10T05:45:40.732Z,97.08
2023-03-10T05:48:13.992Z,96.86
2023-03-10T05:50:45.825Z,96.65
2023-03-10T05:53:17.637Z,96.31
2023-03-10T05:55:49.587Z,96.79
2023-03-10T05:58:21.413Z,96.06
2023-03-10T06:00:53.691Z,96.55
2023-03-10T06:03:28.702Z,96.20
2023-03-10T06:06:01.428Z,96.52
2023-03-10T06:08:34.251Z,95.94
2023-03-10T06:11:06.242Z,96.43
2023-03-10T06:13:38.103Z,96.34
2023-03-10T06:16:12.201Z,96.12
2023-03-10T06:18:45.619Z,96.14
2023-03-10T06:21:18.452Z,95.86
2023-03-10T06:23:50.355Z,95.94
2023-03-10T06:26:24.265Z,95.89
2023-03-10T06:28:56.171Z,95.67
2023-03-10T06:31:29.702Z,95.87
2023-03-10T06:34:04.545Z,96.12
2023-03-10T06:36:37.401Z,96.46
2023-03-10T06:39:10.311Z,96.46
2023-03-10T06:41:42.235Z,95.96
2023-03-10T06:44:18.674Z,95.84
2023-03-10T06:46:50.325Z,96.19
2023-03-10T06:49:23.690Z,96.38
2023-03-10T06:51:55.521Z,95.78
2023-03-10T06:54:27.519Z,96.19
2023-03-10T06:56:59.351Z,96.25
2023-03-10T06:59:33.698Z,96.31
2023-03-10T07:02:06.158Z,96.36
2023-03-10T07:04:39.495Z,96.31
2023-03-10T07:07:11.319Z,96.45
2023-03-10T07:09:43.134Z,96.56
2023-03-10T07:12:14.805Z,96.03
2023-03-10T07:14:46.650Z,96.30
2023-03-10T07:17:18.590Z,96.11
2023-03-10T07:19:51.508Z,96.10
2023-03-10T07:22:23.366Z,96.14
2023-03-10T07:24:57.108Z,96.08
2023-03-10T07:27:29.159Z,95.77
2023-03-10T07:30:00.993Z,96.42
2023-03-10T07:32:32.988Z,96.25
2023-03-10T07:35:06.320Z,96.23
2023-03-10T07:37:40.821Z,96.17
2023-03-10T07:40:14.565Z,96.04
2023-03-10T07:42:47.439Z,96.20
2023-03-10T07:45:19.831Z,96.38
2023-03-10T07:47:53.131Z,95.72
2023-03-10T07:50:26.916Z,95.67
2023-03-10T07:52:58.830Z,95.88
2023-03-10T07:55:30.701Z,95.86
2023-03-10T07:58:02.843Z,95.90
2023-03-10T08:00:35.121Z,95.61
2023-03-10T08:03:06.927Z,95.79
2023-03-10T08:05:44.509Z,96.14
2023-03-10T08:08:16.109Z,95.92
2023-03-10T08:10:47.984Z,96.31
2023-03-10T08:13:19.995Z,96.10
2023-03-10T08:15:51.731Z,96.28
2023-03-10T08:18:25.936Z,95.79
2023-03-10T08:20:59.570Z,96.01
2023-03-10T08:23:31.352Z,96.12
2023-03-10T08:26:05.639Z,96.19
2023-03-10T08:28:38.907Z,96.11
2023-03-10T08:31:16.882Z,96.06
2023-03-10T08:33:49.343Z,96.27
2023-03-10T08:36:25.344Z,95.93
2023-03-10T08:39:00.188Z,95.93
2023-03-10T08:41:36.407Z,96.02
2023-03-10T08:44:15.003Z,96.06
2023-03-10T08:46:49.939Z,96.49
2023-03-10T08:49:23.408Z,96.21
2023-03-10T08:51:56.394Z,96.71
2023-03-10T08:54:29.103Z,96.63
2023-03-10T08:57:02.541Z,96.39
2023-03-10T08:59:34.510Z,96.83
2023-03-10T09:02:06.228Z,97.14
2023-03-10T09:04:38.015Z,97.07
2023-03-10T09:07:11.293Z,96.97
2023-03-10T09:09:43.324Z,96.87
2023-03-10T09:12:15.065Z,96.77
2023-03-10T09:14:47.100Z,97.29
2023-03-10T09:17:18.960Z,97.00
2023-03-10T09:19:50.782Z,97.04
2023-03-10T09:22:23.754Z,96.90
2023-03-10T09:24:55.690Z,96.98
2023-03-10T09:27:27.471Z,97.02
2023-03-10T09:30:01.194Z,96.78
2023-03-10T09:32:33.650Z,96.99
2023-03-10T09:35:06.215Z,97.00
2023-03-10T09:37:39.293Z,97.11
2023-03-10T09:40:18.405Z,96.99
2023-03-10T09:42:52.488Z,97.05
2023-03-10T09:45:31.662Z,97.00
2023-03-10T09:48:28.497Z,97.31
2023-03-10T09:51:05.785Z,97.18
2023-03-10T09:54:11.835Z,97.05
2023-03-10T09:56:43.787Z,97.28
2023-03-10T09:59:23.009Z,97.14
2023-03-10T10:01:56.881Z,97.01
2023-03-10T10:04:39.426Z,97.64
2023-03-10T10:07:20.141Z,96.88
2023-03-10T10:10:04.257Z,97.26
2023-03-10T10:12:36.691Z,97.11
2023-03-10T10:15:22.288Z,96.49
2023-03-10T10:18:19.421Z,96.41
2023-03-10T10:21:00.322Z,96.85
2023-03-10T10:23:40.100Z,96.69
2023-03-10T10:26:17.820Z,96.72
2023-03-10T10:28:57.922Z,97.22
2023-03-10T10:31:34.976Z,96.65
2023-03-10T10:34:19.770Z,96.53
2023-03-10T10:36:57.262Z,96.35
2023-03-10T10:39:32.952Z,96.56
2023-03-10T10:42:25.253Z,96.29
2023-03-10T10:45:02.180Z,96.28
2023-03-10T10:47:36.426Z,96.09
2023-03-10T10:50:20.823Z,95.97
2023-03-10T10:53:12.814Z,96.47
2023-03-10T10:55:47.628Z,96.52
2023-03-10T10:58:33.650Z,96.32
2023-03-10T11:01:09.183Z,96.26
2023-03-10T11:03:43.068Z,96.84
2023-03-10T11:06:24.972Z,96.83
2023-03-10T11:09:08.340Z,96.21
2023-03-10T11:11:51.088Z,96.81
2023-03-10T11:14:38.683Z,95.54
2023-03-10T11:17:19.119Z,95.51
2023-03-10T11:20:02.188Z,95.72
2023-03-10T11:22:43.002Z,95.32
2023-03-10T11:25:27.822Z,95.13
2023-03-10T11:28:35.278Z,95.21
2023-03-10T11:31:24.781Z,94.98
2023-03-10T11:34:08.086Z,95.69
2023-03-10T11:36:55.950Z,94.91
2023-03-10T11:39:43.666Z,95.09
2023-03-10T11:42:26.361Z,94.86
2023-03-10T11:45:20.064Z,95.34
2023-03-10T11:48:04.606Z,95.02
2023-03-10T11:50:48.951Z,95.04
2023-03-10T11:53:37.740Z,95.26
2023-03-10T11:56:12.396Z,95.09
2023-03-10T11:58:57.864Z,94.55
2023-03-10T12:01:35.713Z,94.90
2023-03-10T12:04:14.608Z,95.45
2023-03-10T12:06:56.470Z,95.10
2023-03-10T12:09:40.099Z,95.04
2023-03-10T12:12:17.441Z,94.93
2023-03-10T12:14:50.874Z,95.31
2023-03-10T12:17:22.816Z,94.71
2023-03-10T12:20:31.633Z,94.89
2023-03-10T12:23:39.284Z,93.99
2023-03-10T12:26:11.827Z,94.62
2023-03-10T12:28:44.496Z,95.07
2023-03-10T12:31:48.358Z,94.46
2023-03-10T12:34:31.676Z,94.64
2023-03-10T12:37:12.053Z,94.92
2023-03-10T12:39:44.726Z,94.49
2023-03-10T12:42:34.852Z,94.08
2023-03-10T12:45:18.218Z,94.30
2023-03-10T12:48:01.538Z,94.55
2023-03-10T12:50:44.729Z,94.08
2023-03-10T12:53:38.831Z,93.60
2023-03-10T12:56:33.634Z,94.16
2023-03-10T12:59:18.045Z,93.50
2023-03-10T13:01:56.211Z,93.58
2023-03-10T13:04:32.185Z,94.58
2023-03-10T13:07:04.929Z,93.75
2023-03-10T13:09:42.906Z,93.57
2023-03-10T13:12:22.199Z,93.63
2023-03-10T13:14:58.844Z,94.00
2023-03-10T13:17:33.405Z,94.07
2023-03-10T13:20:12.348Z,93.78
2023-03-10T13:22:53.651Z,94.13
2023-03-10T13:25:26.879Z,93.49
2023-03-10T13:27:58.527Z,94.03
2023-03-10T13:30:31.370Z,93.53
2023-03-10T13:33:05.059Z,94.03
2023-03-10T13:35:41.977Z,93.96
2023-03-10T13:38:20.806Z,93.17
2023-03-10T13:41:03.118Z,93.27
2023-03-10T13:43:42.499Z,93.23
2023-03-10T13:46:25.689Z,93.32
2023-03-10T13:49:03.749Z,93.48
2023-03-10T13:51:38.833Z,93.21
2023-03-10T13:54:24.025Z,93.14
2023-03-10T13:56:59.992Z,93.65
2023-03-10T13:59:35.426Z,93.53
2023-03-10T14:02:14.166Z,93.10
2023-03-10T14:04:50.744Z,93.29
2023-03-10T14:07:27.616Z,92.88
2023-03-10T14:10:23.080Z,93.14
2023-03-10T14:12:57.435Z,92.57
2023-03-10T14:15:38.659Z,92.82
2023-03-10T14:18:27.687Z,91.90
2023-03-10T14:20:59.291Z,92.02
2023-03-10T14:23:38.395Z,92.39
2023-03-10T14:26:17.953Z,91.71
2023-03-10T14:28:49.949Z,91.89
2023-03-10T14:31:27.419Z,91.35
2023-03-10T14:33:59.243Z,92.39
2023-03-10T14:36:31.022Z,92.22
2023-03-10T14:39:04.390Z,91.72
2023-03-10T14:41:36.581Z,91.74
2023-03-10T14:44:08.465Z,92.41
2023-03-10T14:46:40.707Z,91.87
2023-03-10T14:49:21.655Z,92.51
2023-03-10T14:51:53.643Z,92.83
2023-03-10T14:54:28.812Z,91.75
2023-03-10T14:57:02.985Z,92.29
2023-03-10T14:59:35.013Z,91.95
2023-03-10T15:02:21.210Z,92.13
2023-03-10T15:04:53.411Z,92.54
2023-03-10T15:07:25.062Z,92.66
2023-03-10T15:10:10.654Z,92.13
2023-03-10T15:12:43.848Z,92.46
2023-03-10T15:15:24.871Z,92.80
2023-03-10T15:17:56.541Z,92.95
2023-03-10T15:20:29.425Z,92.73
2023-03-10T15:23:03.374Z,92.56
2023-03-10T15:25:36.606Z,92.51
2023-03-10T15:28:08.225Z,92.27
2023-03-10T15:30:40.976Z,92.29
2023-03-10T15:33:12.968Z,92.36
2023-03-10T15:35:46.889Z,91.67
2023-03-10T15:38:19.739Z,91.42
2023-03-10T15:40:52.877Z,91.57
2023-03-10T15:43:24.845Z,91.17
2023-03-10T15:45:56.726Z,91.65
2023-03-10T15:48:31.469Z,91.75
2023-03-10T15:51:03.305Z,91.46
2023-03-10T15:53:35.087Z,92.15
2023-03-10T15:56:11.886Z,91.79
2023-03-10T15:58:46.127Z,91.21
2023-03-10T16:01:20.820Z,91.53
2023-03-10T16:03:54.469Z,91.13
2023-03-10T16:06:31.918Z,91.69
2023-03-10T16:09:07.869Z,91.86
2023-03-10T16:11:42.038Z,91.55
2023-03-10T16:14:13.827Z,90.71
2023-03-10T16:16:47.092Z,91.67
2023-03-10T16:19:20.422Z,91.40
2023-03-10T16:21:54.052Z,91.35
2023-03-10T16:24:26.146Z,91.05
2023-03-10T16:26:59.060Z,91.18
2023-03-10T16:29:30.890Z,90.66
2023-03-10T16:32:02.849Z,91.39
2023-03-10T16:34:34.588Z,90.93
2023-03-10T16:37:08.321Z,91.00
2023-03-10T16:39:40.560Z,90.93
2023-03-10T16:42:13.890Z,91.56
2023-03-10T16:44:45.800Z,91.30
2023-03-10T16:47:18.117Z,91.33
2023-03-10T16:49:49.974Z,91.28
2023-03-10T16:52:21.854Z,90.88
2023-03-10T16:54:57.389Z,91.13
2023-03-10T16:57:30.681Z,90.92
2023-03-10T17:00:04.961Z,91.30
2023-03-10T17:02:36.536Z,91.58
2023-03-10T17:05:10.038Z,91.33
2023-03-10T17:07:54.787Z,91.49
2023-03-10T17:10:27.267Z,91.80
2023-03-10T17:13:00.197Z,91.61
2023-03-10T17:15:32.888Z,91.46
2023-03-10T17:18:04.917Z,92.17
2023-03-10T17:20:38.646Z,91.98
2023-03-10T17:23:10.241Z,91.86
2023-03-10T17:25:44.683Z,91.88
2023-03-10T17:28:17.696Z,92.20
2023-03-10T17:30:49.455Z,91.67
2023-03-10T17:33:21.300Z,91.77
2023-03-10T17:35:53.120Z,91.95
2023-03-10T17:38:26.674Z,91.48
2023-03-10T17:41:02.776Z,92.13
2023-03-10T17:43:36.060Z,92.40
2023-03-10T17:46:12.270Z,92.11
2023-03-10T17:48:44.265Z,91.87
2023-03-10T17:51:21.031Z,90.91
2023-03-10T17:53:53.446Z,90.55
2023-03-10T17:56:25.658Z,90.18
2023-03-10T17:58:59.844Z,89.44
2023-03-10T18:01:34.038Z,89.34
2023-03-10T18:04:05.959Z,89.82
2023-03-10T18:06:40.494Z,89.05
2023-03-10T18:09:15.617Z,89.40
2023-03-10T18:11:47.517Z,89.49
2023-03-10T18:14:20.841Z,89.86
2023-03-10T18:16:52.666Z,89.25
2023-03-10T18:19:24.509Z,89.12
2023-03-10T18:21:56.360Z,89.59
2023-03-10T18:24:28.323Z,90.26
2023-03-10T18:27:01.653Z,89.74
2023-03-10T18:29:34.603Z,90.43
2023-03-10T18:32:06.555Z,89.94
2023-03-10T18:34:38.506Z,90.36
2023-03-10T18:37:10.099Z,89.74
2023-03-10T18:39:43.065Z,90.41
2023-03-10T18:42:15.558Z,90.28
2023-03-10T18:44:51.118Z,90.09
2023-03-10T18:47:24.139Z,89.41
2023-03-10T18:49:56.024Z,89.97
2023-03-10T18:52:27.633Z,89.25
2023-03-10T18:55:00.892Z,90.23
2023-03-10T18:57:33.327Z,90.63
2023-03-10T19:00:09.108Z,90.14
2023-03-10T19:02:40.707Z,90.11
2023-03-10T19:05:13.336Z,90.47
2023-03-10T19:07:45.848Z,90.63
2023-03-10T19:10:19.567Z,90.27
2023-03-10T19:12:51.151Z,90.92
2023-03-10T19:15:24.127Z,90.47
2023-03-10T19:17:56.329Z,90.64
2023-03-10T19:20:28.066Z,90.59
2023-03-10T19:23:00.422Z,91.00
2023-03-10T19:25:32.245Z,90.38
2023-03-10T19:28:04.147Z,90.73
2023-03-10T19:30:37.225Z,90.44
2023-03-10T19:33:08.866Z,90.68
2023-03-10T19:35:40.835Z,90.66
2023-03-10T19:38:13.188Z,90.14
2023-03-10T19:40:48.725Z,90.72
2023-03-10T19:43:20.545Z,90.29
2023-03-10T19:45:59.652Z,90.32
2023-03-10T19:48:32.662Z,90.74
2023-03-10T19:51:05.517Z,90.94
2023-03-10T19:53:38.297Z,90.86
2023-03-10T19:56:11.583Z,90.22
2023-03-10T19:58:43.462Z,89.65
2023-03-10T20:01:22.673Z,90.19
2023-03-10T20:03:55.612Z,89.33
2023-03-10T20:06:28.149Z,89.53
2023-03-10T20:09:00.214Z,90.16
2023-03-10T20:11:32.167Z,90.91
2023-03-10T20:14:03.976Z,91.20
2023-03-10T20:16:37.345Z,90.99
2023-03-10T20:19:09.292Z,90.26
2023-03-10T20:21:41.555Z,90.67
2023-03-10T20:24:13.609Z,90.71
2023-03-10T20:26:45.451Z,90.90
2023-03-10T20:29:17.364Z,90.49
2023-03-10T20:31:50.542Z,90.20
2023-03-10T20:34:25.635Z,90.85
2023-03-10T20:36:57.989Z,90.54
2023-03-10T20:39:29.870Z,92.07
2023-03-10T20:42:01.763Z,91.84
2023-03-10T20:44:33.614Z,91.25
2023-03-10T20:47:07.106Z,91.42
2023-03-10T20:49:38.674Z,92.11
2023-03-10T20:52:10.563Z,91.44
2023-03-10T20:54:42.420Z,92.12
2023-03-10T20:57:14.280Z,91.12
2023-03-10T20:59:46.110Z,91.78
2023-03-10T21:02:23.926Z,92.33
2023-03-10T21:04:55.932Z,92.14
2023-03-10T21:07:27.798Z,92.80
2023-03-10T21:09:59.717Z,92.96
2023-03-10T21:12:31.734Z,92.44
2023-03-10T21:15:04.182Z,92.40
2023-03-10T21:17:37.200Z,91.34
2023-03-10T21:20:12.931Z,91.81
2023-03-10T21:22:45.383Z,92.10
2023-03-10T21:25:20.865Z,92.42
2023-03-10T21:27:58.678Z,91.76
2023-03-10T21:30:33.518Z,91.23
2023-03-10T21:33:07.373Z,91.39
2023-03-10T21:35:40.438Z,91.69
2023-03-10T21:38:12.680Z,92.29
2023-03-10T21:40:44.562Z,91.80
2023-03-10T21:43:16.779Z,92.54
2023-03-10T21:45:48.700Z,91.85
2023-03-10T21:48:22.016Z,92.50
2023-03-10T21:50:53.881Z,93.04
2023-03-10T21:53:26.709Z,92.51
2023-03-10T21:56:00.497Z,93.00
2023-03-10T21:58:32.197Z,92.84
2023-03-10T22:01:04.552Z,92.66
2023-03-10T22:03:38.382Z,92.35
2023-03-10T22:06:10.316Z,92.99
2023-03-10T22:08:42.711Z,92.53
2023-03-10T22:11:15.724Z,93.06
2023-03-10T22:13:47.698Z,93.44
2023-03-10T22:16:20.628Z,92.51
2023-03-10T22:18:54.431Z,92.33
2023-03-10T22:21:26.308Z,93.41
2023-03-10T22:23:59.836Z,93.48
2023-03-10T22:26:31.582Z,92.77
2023-03-10T22:29:03.456Z,93.87
2023-03-10T22:31:35.377Z,92.57
2023-03-10T22:34:08.588Z,93.45
2023-03-10T22:36:40.460Z,92.77
2023-03-10T22:39:12.350Z,92.90
2023-03-10T22:41:44.136Z,93.46
2023-03-10T22:44:16.062Z,92.97
2023-03-10T22:46:48.966Z,92.22
2023-03-10T22:49:22.023Z,93.04
2023-03-10T22:51:53.862Z,93.44
2023-03-10T22:54:25.931Z,93.38
2023-03-10T22:56:57.762Z,92.60
2023-03-10T22:59:29.753Z,93.76
2023-03-10T23:02:01.656Z,92.81
2023-03-10T23:04:34.833Z,92.70
2023-03-10T23:07:06.742Z,93.51
2023-03-10T23:09:38.712Z,92.91
2023-03-10T23:12:11.558Z,93.24
2023-03-10T23:14:43.489Z,92.83
2023-03-10T23:17:15.315Z,93.07
2023-03-10T23:19:51.165Z,92.41
2023-03-10T23:22:23.238Z,92.64
2023-03-10T23:24:55.322Z,92.24
2023-03-10T23:27:27.136Z,91.96
2023-03-10T23:29:59.022Z,91.73
2023-03-10T23:32:30.883Z,92.48
2023-03-10T23:35:08.857Z,92.17
2023-03-10T23:37:40.985Z,92.48
2023-03-10T23:40:17.959Z,92.31
2023-03-10T23:42:49.934Z,93.13
2023-03-10T23:45:24.394Z,92.18
2023-03-10T23:47:58.080Z,92.34
2023-03-10T23:50:36.273Z,91.81
2023-03-10T23:53:11.193Z,91.35
2023-03-10T23:55:46.727Z,92.76
2023-03-10T23:58:21.033Z,91.76
